sensor_id;sensor_type;location;lat;lon;timestamp;temperature;humidity
36498;DHT22;22513;51.222;6.480;2024-01-30T00:02:16;20.50;51.90
36498;DHT22;22513;51.222;6.480;2024-01-30T00:04:42;20.50;51.80
36498;DHT22;22513;51.222;6.480;2024-01-30T00:07:07;20.40;51.80
36498;DHT22;22513;51.222;6.480;2024-01-30T00:09:33;20.50;51.90
36498;DHT22;22513;51.222;6.480;2024-01-30T00:11:59;20.50;52.20
36498;DHT22;22513;51.222;6.480;2024-01-30T00:14:24;20.50;51.80
36498;DHT22;22513;51.222;6.480;2024-01-30T00:16:51;20.50;51.80
36498;DHT22;22513;51.222;6.480;2024-01-30T00:19:17;20.50;51.80
36498;DHT22;22513;51.222;6.480;2024-01-30T00:21:43;20.50;51.90
36498;DHT22;22513;51.222;6.480;2024-01-30T00:24:09;20.50;51.90
36498;DHT22;22513;51.222;6.480;2024-01-30T00:26:34;20.50;51.90
36498;DHT22;22513;51.222;6.480;2024-01-30T00:29:00;20.50;51.90
36498;DHT22;22513;51.222;6.480;2024-01-30T00:31:26;20.50;51.90
36498;DHT22;22513;51.222;6.480;2024-01-30T00:33:52;20.50;51.80
36498;DHT22;22513;51.222;6.480;2024-01-30T00:36:17;20.40;51.80
36498;DHT22;22513;51.222;6.480;2024-01-30T00:38:43;20.40;51.80
36498;DHT22;22513;51.222;6.480;2024-01-30T00:41:09;20.50;51.90
36498;DHT22;22513;51.222;6.480;2024-01-30T00:43:35;20.50;51.90
36498;DHT22;22513;51.222;6.480;2024-01-30T00:46:01;20.40;51.80
36498;DHT22;22513;51.222;6.480;2024-01-30T00:50:55;20.40;51.80
36498;DHT22;22513;51.222;6.480;2024-01-30T00:53:20;20.50;51.90
36498;DHT22;22513;51.222;6.480;2024-01-30T00:55:46;20.50;51.90
36498;DHT22;22513;51.222;6.480;2024-01-30T00:58:12;20.50;51.90
36498;DHT22;22513;51.222;6.480;2024-01-30T01:00:38;20.50;51.90
36498;DHT22;22513;51.222;6.480;2024-01-30T01:03:04;20.50;51.90
36498;DHT22;22513;51.222;6.480;2024-01-30T01:05:29;20.50;51.90
36498;DHT22;22513;51.222;6.480;2024-01-30T01:07:55;20.50;51.90
36498;DHT22;22513;51.222;6.480;2024-01-30T01:10:20;20.50;51.90
36498;DHT22;22513;51.222;6.480;2024-01-30T01:12:46;20.50;51.90
36498;DHT22;22513;51.222;6.480;2024-01-30T01:15:12;20.50;51.90
36498;DHT22;22513;51.222;6.480;2024-01-30T01:17:38;20.50;51.90
36498;DHT22;22513;51.222;6.480;2024-01-30T01:20:05;20.40;51.80
36498;DHT22;22513;51.222;6.480;2024-01-30T01:22:31;20.40;51.80
36498;DHT22;22513;51.222;6.480;2024-01-30T01:24:58;20.40;51.80
36498;DHT22;22513;51.222;6.480;2024-01-30T01:27:24;20.40;51.80
36498;DHT22;22513;51.222;6.480;2024-01-30T01:29:50;20.40;51.80
36498;DHT22;22513;51.222;6.480;2024-01-30T01:32:16;20.40;51.90
36498;DHT22;22513;51.222;6.480;2024-01-30T01:34:41;20.50;51.90
36498;DHT22;22513;51.222;6.480;2024-01-30T01:37:07;20.40;51.80
36498;DHT22;22513;51.222;6.480;2024-01-30T01:39:33;20.40;51.90
36498;DHT22;22513;51.222;6.480;2024-01-30T01:41:58;20.40;51.80
36498;DHT22;22513;51.222;6.480;2024-01-30T01:44:24;20.40;51.80
36498;DHT22;22513;51.222;6.480;2024-01-30T01:46:51;20.50;51.90
36498;DHT22;22513;51.222;6.480;2024-01-30T01:49:17;20.40;51.80
36498;DHT22;22513;51.222;6.480;2024-01-30T01:51:45;20.40;51.90
36498;DHT22;22513;51.222;6.480;2024-01-30T01:54:14;20.40;51.90
36498;DHT22;22513;51.222;6.480;2024-01-30T01:56:40;20.40;51.90
36498;DHT22;22513;51.222;6.480;2024-01-30T01:59:07;20.40;51.90
36498;DHT22;22513;51.222;6.480;2024-01-30T02:01:34;20.40;51.90
36498;DHT22;22513;51.222;6.480;2024-01-30T02:04:00;20.40;51.90
36498;DHT22;22513;51.222;6.480;2024-01-30T02:06:27;20.40;51.90
36498;DHT22;22513;51.222;6.480;2024-01-30T02:08:53;20.40;51.90
36498;DHT22;22513;51.222;6.480;2024-01-30T02:11:19;20.40;51.90
36498;DHT22;22513;51.222;6.480;2024-01-30T02:13:45;20.40;51.90
36498;DHT22;22513;51.222;6.480;2024-01-30T02:16:11;20.40;51.90
36498;DHT22;22513;51.222;6.480;2024-01-30T02:18:36;20.40;51.90
36498;DHT22;22513;51.222;6.480;2024-01-30T02:21:07;20.40;51.90
36498;DHT22;22513;51.222;6.480;2024-01-30T02:23:33;20.40;51.90
36498;DHT22;22513;51.222;6.480;2024-01-30T02:26:00;20.40;51.90
36498;DHT22;22513;51.222;6.480;2024-01-30T02:28:26;20.40;51.90
36498;DHT22;22513;51.222;6.480;2024-01-30T02:30:53;20.40;51.90
36498;DHT22;22513;51.222;6.480;2024-01-30T02:33:19;20.40;51.90
36498;DHT22;22513;51.222;6.480;2024-01-30T02:35:47;20.40;51.90
36498;DHT22;22513;51.222;6.480;2024-01-30T02:38:13;20.40;51.90
36498;DHT22;22513;51.222;6.480;2024-01-30T02:40:38;20.40;51.90
36498;DHT22;22513;51.222;6.480;2024-01-30T02:43:04;20.50;51.90
36498;DHT22;22513;51.222;6.480;2024-01-30T02:45:30;20.40;52.60
36498;DHT22;22513;51.222;6.480;2024-01-30T02:47:55;20.40;51.90
36498;DHT22;22513;51.222;6.480;2024-01-30T02:50:21;20.40;51.90
36498;DHT22;22513;51.222;6.480;2024-01-30T02:52:47;20.40;51.90
36498;DHT22;22513;51.222;6.480;2024-01-30T02:55:12;20.40;51.90
36498;DHT22;22513;51.222;6.480;2024-01-30T02:57:38;20.40;51.90
36498;DHT22;22513;51.222;6.480;2024-01-30T03:00:05;20.40;52.60
36498;DHT22;22513;51.222;6.480;2024-01-30T03:02:32;20.40;51.90
36498;DHT22;22513;51.222;6.480;2024-01-30T03:04:59;20.40;51.90
36498;DHT22;22513;51.222;6.480;2024-01-30T03:07:25;20.40;51.90
36498;DHT22;22513;51.222;6.480;2024-01-30T03:09:50;20.40;52.00
36498;DHT22;22513;51.222;6.480;2024-01-30T03:12:16;20.40;51.90
36498;DHT22;22513;51.222;6.480;2024-01-30T03:14:41;20.40;51.90
36498;DHT22;22513;51.222;6.480;2024-01-30T03:17:07;20.40;51.90
36498;DHT22;22513;51.222;6.480;2024-01-30T03:19:33;20.40;52.00
36498;DHT22;22513;51.222;6.480;2024-01-30T03:21:59;20.40;52.00
36498;DHT22;22513;51.222;6.480;2024-01-30T03:24:24;20.40;52.00
36498;DHT22;22513;51.222;6.480;2024-01-30T03:26:50;20.40;52.00
36498;DHT22;22513;51.222;6.480;2024-01-30T03:29:16;20.40;52.00
36498;DHT22;22513;51.222;6.480;2024-01-30T03:31:41;20.40;52.00
36498;DHT22;22513;51.222;6.480;2024-01-30T03:34:07;20.40;52.00
36498;DHT22;22513;51.222;6.480;2024-01-30T03:36:32;20.40;51.90
36498;DHT22;22513;51.222;6.480;2024-01-30T03:39:00;20.40;52.00
36498;DHT22;22513;51.222;6.480;2024-01-30T03:41:25;20.40;52.70
36498;DHT22;22513;51.222;6.480;2024-01-30T03:43:51;20.40;52.00
36498;DHT22;22513;51.222;6.480;2024-01-30T03:46:17;20.40;52.00
36498;DHT22;22513;51.222;6.480;2024-01-30T03:48:42;20.40;52.00
36498;DHT22;22513;51.222;6.480;2024-01-30T03:51:08;20.40;52.00
36498;DHT22;22513;51.222;6.480;2024-01-30T03:53:34;20.40;52.00
36498;DHT22;22513;51.222;6.480;2024-01-30T03:56:00;20.40;52.00
36498;DHT22;22513;51.222;6.480;2024-01-30T03:58:26;20.40;52.00
36498;DHT22;22513;51.222;6.480;2024-01-30T04:00:52;20.40;52.00
36498;DHT22;22513;51.222;6.480;2024-01-30T04:03:17;20.40;52.00
36498;DHT22;22513;51.222;6.480;2024-01-30T04:05:43;20.40;52.00
36498;DHT22;22513;51.222;6.480;2024-01-30T04:08:09;20.40;52.00
36498;DHT22;22513;51.222;6.480;2024-01-30T04:10:35;20.40;52.00
36498;DHT22;22513;51.222;6.480;2024-01-30T04:13:00;20.40;52.00
36498;DHT22;22513;51.222;6.480;2024-01-30T04:15:26;20.40;52.00
36498;DHT22;22513;51.222;6.480;2024-01-30T04:17:52;20.40;52.00
36498;DHT22;22513;51.222;6.480;2024-01-30T04:20:18;20.40;52.00
36498;DHT22;22513;51.222;6.480;2024-01-30T04:22:44;20.40;52.00
36498;DHT22;22513;51.222;6.480;2024-01-30T04:25:10;20.40;52.00
36498;DHT22;22513;51.222;6.480;2024-01-30T04:27:36;20.40;52.00
36498;DHT22;22513;51.222;6.480;2024-01-30T04:30:02;20.40;52.00
36498;DHT22;22513;51.222;6.480;2024-01-30T04:32:27;20.40;52.00
36498;DHT22;22513;51.222;6.480;2024-01-30T04:34:53;20.40;52.00
36498;DHT22;22513;51.222;6.480;2024-01-30T04:37:19;20.40;52.00
36498;DHT22;22513;51.222;6.480;2024-01-30T04:39:44;20.40;52.00
36498;DHT22;22513;51.222;6.480;2024-01-30T04:42:10;20.40;52.00
36498;DHT22;22513;51.222;6.480;2024-01-30T04:44:35;20.40;52.00
36498;DHT22;22513;51.222;6.480;2024-01-30T04:47:01;20.40;52.10
36498;DHT22;22513;51.222;6.480;2024-01-30T04:49:27;20.40;52.00
36498;DHT22;22513;51.222;6.480;2024-01-30T04:51:54;20.40;52.00
36498;DHT22;22513;51.222;6.480;2024-01-30T04:54:20;20.40;52.00
36498;DHT22;22513;51.222;6.480;2024-01-30T04:56:45;20.40;52.10
36498;DHT22;22513;51.222;6.480;2024-01-30T04:59:11;20.40;52.00
36498;DHT22;22513;51.222;6.480;2024-01-30T05:01:37;20.40;52.00
36498;DHT22;22513;51.222;6.480;2024-01-30T05:04:03;20.40;52.00
36498;DHT22;22513;51.222;6.480;2024-01-30T05:06:29;20.40;52.10
36498;DHT22;22513;51.222;6.480;2024-01-30T05:08:55;20.40;52.10
36498;DHT22;22513;51.222;6.480;2024-01-30T05:11:20;20.40;52.10
36498;DHT22;22513;51.222;6.480;2024-01-30T05:13:46;20.40;52.10
36498;DHT22;22513;51.222;6.480;2024-01-30T05:16:12;20.40;52.10
36498;DHT22;22513;51.222;6.480;2024-01-30T05:18:37;20.40;52.10
36498;DHT22;22513;51.222;6.480;2024-01-30T05:21:03;20.40;52.10
36498;DHT22;22513;51.222;6.480;2024-01-30T05:23:29;20.40;52.10
36498;DHT22;22513;51.222;6.480;2024-01-30T05:25:54;20.40;52.10
36498;DHT22;22513;51.222;6.480;2024-01-30T05:28:20;20.40;52.20
36498;DHT22;22513;51.222;6.480;2024-01-30T05:30:45;20.40;52.10
36498;DHT22;22513;51.222;6.480;2024-01-30T05:33:11;20.40;52.20
36498;DHT22;22513;51.222;6.480;2024-01-30T05:35:38;20.40;52.30
36498;DHT22;22513;51.222;6.480;2024-01-30T05:38:03;20.40;52.20
36498;DHT22;22513;51.222;6.480;2024-01-30T05:40:30;20.40;52.30
36498;DHT22;22513;51.222;6.480;2024-01-30T05:42:56;20.40;52.30
36498;DHT22;22513;51.222;6.480;2024-01-30T05:45:21;20.40;52.30
36498;DHT22;22513;51.222;6.480;2024-01-30T05:47:48;20.40;52.30
36498;DHT22;22513;51.222;6.480;2024-01-30T05:50:14;20.40;52.30
36498;DHT22;22513;51.222;6.480;2024-01-30T05:52:40;20.40;52.30
36498;DHT22;22513;51.222;6.480;2024-01-30T05:55:06;20.40;52.30
36498;DHT22;22513;51.222;6.480;2024-01-30T05:57:31;20.40;52.30
36498;DHT22;22513;51.222;6.480;2024-01-30T05:59:57;20.40;52.30
36498;DHT22;22513;51.222;6.480;2024-01-30T06:02:23;20.40;52.40
36498;DHT22;22513;51.222;6.480;2024-01-30T06:04:48;20.40;52.40
36498;DHT22;22513;51.222;6.480;2024-01-30T06:07:14;20.40;52.40
36498;DHT22;22513;51.222;6.480;2024-01-30T06:09:39;20.40;52.40
36498;DHT22;22513;51.222;6.480;2024-01-30T06:12:06;20.40;52.40
36498;DHT22;22513;51.222;6.480;2024-01-30T06:14:32;20.40;52.40
36498;DHT22;22513;51.222;6.480;2024-01-30T06:16:59;20.40;52.40
36498;DHT22;22513;51.222;6.480;2024-01-30T06:19:24;20.40;52.40
36498;DHT22;22513;51.222;6.480;2024-01-30T06:21:50;20.40;52.40
36498;DHT22;22513;51.222;6.480;2024-01-30T06:24:16;20.40;52.40
36498;DHT22;22513;51.222;6.480;2024-01-30T06:26:42;20.40;52.50
36498;DHT22;22513;51.222;6.480;2024-01-30T06:29:08;20.40;52.50
36498;DHT22;22513;51.222;6.480;2024-01-30T06:31:40;20.40;52.50
36498;DHT22;22513;51.222;6.480;2024-01-30T06:34:05;20.40;52.50
36498;DHT22;22513;51.222;6.480;2024-01-30T06:36:31;20.40;52.50
36498;DHT22;22513;51.222;6.480;2024-01-30T06:38:57;20.40;52.50
36498;DHT22;22513;51.222;6.480;2024-01-30T06:41:22;20.40;52.50
36498;DHT22;22513;51.222;6.480;2024-01-30T06:43:48;20.40;52.50
36498;DHT22;22513;51.222;6.480;2024-01-30T06:46:13;20.40;52.50
36498;DHT22;22513;51.222;6.480;2024-01-30T06:48:39;20.40;52.50
36498;DHT22;22513;51.222;6.480;2024-01-30T06:51:06;20.40;52.60
36498;DHT22;22513;51.222;6.480;2024-01-30T06:53:31;20.40;52.60
36498;DHT22;22513;51.222;6.480;2024-01-30T06:55:57;20.40;52.60
36498;DHT22;22513;51.222;6.480;2024-01-30T06:58:23;20.40;52.60
36498;DHT22;22513;51.222;6.480;2024-01-30T07:00:48;20.40;52.60
36498;DHT22;22513;51.222;6.480;2024-01-30T07:03:14;20.40;52.60
36498;DHT22;22513;51.222;6.480;2024-01-30T07:05:39;20.40;52.60
36498;DHT22;22513;51.222;6.480;2024-01-30T07:08:05;20.40;52.70
36498;DHT22;22513;51.222;6.480;2024-01-30T07:10:31;20.40;52.60
36498;DHT22;22513;51.222;6.480;2024-01-30T07:12:57;20.40;52.70
36498;DHT22;22513;51.222;6.480;2024-01-30T07:15:22;20.40;52.70
36498;DHT22;22513;51.222;6.480;2024-01-30T07:17:48;20.40;52.70
36498;DHT22;22513;51.222;6.480;2024-01-30T07:20:13;20.40;52.70
36498;DHT22;22513;51.222;6.480;2024-01-30T07:22:40;20.40;52.80
36498;DHT22;22513;51.222;6.480;2024-01-30T07:25:06;20.40;53.40
36498;DHT22;22513;51.222;6.480;2024-01-30T07:27:32;20.40;52.80
36498;DHT22;22513;51.222;6.480;2024-01-30T07:29:57;20.40;52.70
36498;DHT22;22513;51.222;6.480;2024-01-30T07:32:23;20.40;52.80
36498;DHT22;22513;51.222;6.480;2024-01-30T07:34:49;20.40;52.70
36498;DHT22;22513;51.222;6.480;2024-01-30T07:37:14;20.50;52.80
36498;DHT22;22513;51.222;6.480;2024-01-30T07:39:41;20.40;52.70
36498;DHT22;22513;51.222;6.480;2024-01-30T07:42:07;20.40;52.80
36498;DHT22;22513;51.222;6.480;2024-01-30T07:44:34;20.50;52.80
36498;DHT22;22513;51.222;6.480;2024-01-30T07:46:59;20.40;52.80
36498;DHT22;22513;51.222;6.480;2024-01-30T07:49:25;20.40;52.80
36498;DHT22;22513;51.222;6.480;2024-01-30T07:51:51;20.50;52.80
36498;DHT22;22513;51.222;6.480;2024-01-30T07:54:16;20.50;52.80
36498;DHT22;22513;51.222;6.480;2024-01-30T07:56:42;20.40;52.80
36498;DHT22;22513;51.222;6.480;2024-01-30T07:59:11;20.50;52.90
36498;DHT22;22513;51.222;6.480;2024-01-30T08:01:38;20.50;52.90
36498;DHT22;22513;51.222;6.480;2024-01-30T08:04:03;20.50;52.90
36498;DHT22;22513;51.222;6.480;2024-01-30T08:06:29;20.50;52.90
36498;DHT22;22513;51.222;6.480;2024-01-30T08:08:55;20.50;52.90
36498;DHT22;22513;51.222;6.480;2024-01-30T08:11:21;20.50;53.10
36498;DHT22;22513;51.222;6.480;2024-01-30T08:13:52;20.50;53.50
36498;DHT22;22513;51.222;6.480;2024-01-30T08:16:17;20.50;53.80
36498;DHT22;22513;51.222;6.480;2024-01-30T08:18:43;20.60;54.00
36498;DHT22;22513;51.222;6.480;2024-01-30T08:21:09;20.60;54.20
36498;DHT22;22513;51.222;6.480;2024-01-30T08:23:34;20.60;54.10
36498;DHT22;22513;51.222;6.480;2024-01-30T08:26:00;20.60;54.10
36498;DHT22;22513;51.222;6.480;2024-01-30T08:28:26;20.60;54.10
36498;DHT22;22513;51.222;6.480;2024-01-30T08:30:52;20.60;54.10
36498;DHT22;22513;51.222;6.480;2024-01-30T08:33:17;20.70;54.20
36498;DHT22;22513;51.222;6.480;2024-01-30T08:35:43;20.60;54.10
36498;DHT22;22513;51.222;6.480;2024-01-30T08:38:09;20.60;54.10
36498;DHT22;22513;51.222;6.480;2024-01-30T08:40:34;20.60;54.00
36498;DHT22;22513;51.222;6.480;2024-01-30T08:43:00;20.60;54.00
36498;DHT22;22513;51.222;6.480;2024-01-30T08:45:26;20.60;54.00
36498;DHT22;22513;51.222;6.480;2024-01-30T08:47:51;20.60;53.90
36498;DHT22;22513;51.222;6.480;2024-01-30T08:50:17;20.60;53.90
36498;DHT22;22513;51.222;6.480;2024-01-30T08:52:43;20.60;53.90
36498;DHT22;22513;51.222;6.480;2024-01-30T08:55:10;20.60;53.90
36498;DHT22;22513;51.222;6.480;2024-01-30T08:57:35;20.60;53.80
36498;DHT22;22513;51.222;6.480;2024-01-30T09:00:01;20.60;53.90
36498;DHT22;22513;51.222;6.480;2024-01-30T09:02:30;20.60;53.80
36498;DHT22;22513;51.222;6.480;2024-01-30T09:04:56;20.60;53.80
36498;DHT22;22513;51.222;6.480;2024-01-30T09:07:22;20.60;53.70
36498;DHT22;22513;51.222;6.480;2024-01-30T09:09:47;20.60;53.70
36498;DHT22;22513;51.222;6.480;2024-01-30T09:12:13;20.60;53.70
36498;DHT22;22513;51.222;6.480;2024-01-30T09:14:40;20.60;53.70
36498;DHT22;22513;51.222;6.480;2024-01-30T09:17:06;20.70;53.70
36498;DHT22;22513;51.222;6.480;2024-01-30T09:19:32;20.70;53.70
36498;DHT22;22513;51.222;6.480;2024-01-30T09:21:58;20.70;53.70
36498;DHT22;22513;51.222;6.480;2024-01-30T09:24:23;20.70;53.70
36498;DHT22;22513;51.222;6.480;2024-01-30T09:26:49;20.70;53.70
36498;DHT22;22513;51.222;6.480;2024-01-30T09:29:15;20.70;53.70
36498;DHT22;22513;51.222;6.480;2024-01-30T09:31:44;20.70;53.60
36498;DHT22;22513;51.222;6.480;2024-01-30T09:34:09;20.70;53.70
36498;DHT22;22513;51.222;6.480;2024-01-30T09:36:36;20.70;53.60
36498;DHT22;22513;51.222;6.480;2024-01-30T09:39:01;20.80;53.70
36498;DHT22;22513;51.222;6.480;2024-01-30T09:41:27;20.80;53.70
36498;DHT22;22513;51.222;6.480;2024-01-30T09:43:54;20.80;53.70
36498;DHT22;22513;51.222;6.480;2024-01-30T09:46:23;20.80;53.70
36498;DHT22;22513;51.222;6.480;2024-01-30T09:48:55;20.80;53.70
36498;DHT22;22513;51.222;6.480;2024-01-30T09:51:22;20.80;53.70
36498;DHT22;22513;51.222;6.480;2024-01-30T09:53:48;20.80;53.70
36498;DHT22;22513;51.222;6.480;2024-01-30T09:56:14;20.80;53.70
36498;DHT22;22513;51.222;6.480;2024-01-30T09:58:40;20.90;53.80
36498;DHT22;22513;51.222;6.480;2024-01-30T10:01:07;20.90;53.80
36498;DHT22;22513;51.222;6.480;2024-01-30T10:03:32;20.90;53.80
36498;DHT22;22513;51.222;6.480;2024-01-30T10:05:58;20.90;53.80
36498;DHT22;22513;51.222;6.480;2024-01-30T10:08:26;20.90;53.80
36498;DHT22;22513;51.222;6.480;2024-01-30T10:10:52;20.90;53.90
36498;DHT22;22513;51.222;6.480;2024-01-30T10:13:17;20.90;53.90
36498;DHT22;22513;51.222;6.480;2024-01-30T10:15:43;20.90;53.90
36498;DHT22;22513;51.222;6.480;2024-01-30T10:18:10;20.90;53.90
36498;DHT22;22513;51.222;6.480;2024-01-30T10:20:36;20.90;53.90
36498;DHT22;22513;51.222;6.480;2024-01-30T10:23:03;20.90;54.00
36498;DHT22;22513;51.222;6.480;2024-01-30T10:25:30;20.90;54.00
36498;DHT22;22513;51.222;6.480;2024-01-30T10:27:57;20.90;54.00
36498;DHT22;22513;51.222;6.480;2024-01-30T10:30:23;20.90;54.00
36498;DHT22;22513;51.222;6.480;2024-01-30T10:32:50;20.90;54.00
36498;DHT22;22513;51.222;6.480;2024-01-30T10:35:15;20.90;54.00
36498;DHT22;22513;51.222;6.480;2024-01-30T10:37:48;20.90;54.00
36498;DHT22;22513;51.222;6.480;2024-01-30T10:40:14;20.90;54.00
36498;DHT22;22513;51.222;6.480;2024-01-30T10:42:44;20.90;54.00
36498;DHT22;22513;51.222;6.480;2024-01-30T10:45:14;21.00;54.10
36498;DHT22;22513;51.222;6.480;2024-01-30T10:47:49;21.00;54.10
36498;DHT22;22513;51.222;6.480;2024-01-30T10:50:15;21.00;54.10
36498;DHT22;22513;51.222;6.480;2024-01-30T10:52:42;21.00;54.10
36498;DHT22;22513;51.222;6.480;2024-01-30T10:55:08;21.00;54.10
36498;DHT22;22513;51.222;6.480;2024-01-30T10:57:37;21.00;54.10
36498;DHT22;22513;51.222;6.480;2024-01-30T11:00:08;21.00;54.20
36498;DHT22;22513;51.222;6.480;2024-01-30T11:02:40;21.00;54.20
36498;DHT22;22513;51.222;6.480;2024-01-30T11:05:08;21.00;54.20
36498;DHT22;22513;51.222;6.480;2024-01-30T11:07:34;21.00;54.30
36498;DHT22;22513;51.222;6.480;2024-01-30T11:10:01;21.00;54.30
36498;DHT22;22513;51.222;6.480;2024-01-30T11:12:33;21.00;54.40
36498;DHT22;22513;51.222;6.480;2024-01-30T11:15:07;21.00;54.40
36498;DHT22;22513;51.222;6.480;2024-01-30T11:20:22;21.00;54.60
36498;DHT22;22513;51.222;6.480;2024-01-30T11:22:51;21.00;54.60
36498;DHT22;22513;51.222;6.480;2024-01-30T11:25:19;21.00;54.60
36498;DHT22;22513;51.222;6.480;2024-01-30T11:27:45;20.90;54.60
36498;DHT22;22513;51.222;6.480;2024-01-30T11:30:27;20.90;55.30
36498;DHT22;22513;51.222;6.480;2024-01-30T11:35:34;21.00;54.80
36498;DHT22;22513;51.222;6.480;2024-01-30T11:38:01;20.90;54.80
36498;DHT22;22513;51.222;6.480;2024-01-30T11:40:30;21.00;54.90
36498;DHT22;22513;51.222;6.480;2024-01-30T11:42:58;21.00;54.90
36498;DHT22;22513;51.222;6.480;2024-01-30T11:45:24;21.00;55.00
36498;DHT22;22513;51.222;6.480;2024-01-30T11:47:50;21.00;55.00
36498;DHT22;22513;51.222;6.480;2024-01-30T11:50:15;21.00;55.10
36498;DHT22;22513;51.222;6.480;2024-01-30T11:52:41;21.00;55.20
36498;DHT22;22513;51.222;6.480;2024-01-30T11:55:09;21.00;55.20
36498;DHT22;22513;51.222;6.480;2024-01-30T11:57:35;21.00;55.30
36498;DHT22;22513;51.222;6.480;2024-01-30T12:00:03;21.00;55.30
36498;DHT22;22513;51.222;6.480;2024-01-30T12:02:48;21.00;55.30
36498;DHT22;22513;51.222;6.480;2024-01-30T12:05:14;21.00;55.40
36498;DHT22;22513;51.222;6.480;2024-01-30T12:07:40;21.00;55.40
36498;DHT22;22513;51.222;6.480;2024-01-30T12:10:06;21.00;55.40
36498;DHT22;22513;51.222;6.480;2024-01-30T12:12:35;21.00;55.60
36498;DHT22;22513;51.222;6.480;2024-01-30T12:15:01;21.00;55.60
36498;DHT22;22513;51.222;6.480;2024-01-30T12:17:33;21.00;55.70
36498;DHT22;22513;51.222;6.480;2024-01-30T12:20:09;21.00;55.80
36498;DHT22;22513;51.222;6.480;2024-01-30T12:22:40;21.00;55.80
36498;DHT22;22513;51.222;6.480;2024-01-30T12:25:10;21.00;55.90
36498;DHT22;22513;51.222;6.480;2024-01-30T12:27:37;21.00;55.90
36498;DHT22;22513;51.222;6.480;2024-01-30T12:30:10;21.00;56.00
36498;DHT22;22513;51.222;6.480;2024-01-30T12:32:36;21.10;56.20
36498;DHT22;22513;51.222;6.480;2024-01-30T12:35:03;21.00;56.10
36498;DHT22;22513;51.222;6.480;2024-01-30T12:37:29;21.00;56.10
36498;DHT22;22513;51.222;6.480;2024-01-30T12:39:55;21.10;56.30
36498;DHT22;22513;51.222;6.480;2024-01-30T12:42:21;21.00;56.30
36498;DHT22;22513;51.222;6.480;2024-01-30T12:44:48;21.10;56.40
36498;DHT22;22513;51.222;6.480;2024-01-30T12:47:14;21.00;56.40
36498;DHT22;22513;51.222;6.480;2024-01-30T12:49:42;21.00;56.40
36498;DHT22;22513;51.222;6.480;2024-01-30T12:52:08;21.00;56.40
36498;DHT22;22513;51.222;6.480;2024-01-30T12:54:34;21.10;56.60
36498;DHT22;22513;51.222;6.480;2024-01-30T12:56:59;21.10;56.60
36498;DHT22;22513;51.222;6.480;2024-01-30T12:59:25;21.00;56.60
36498;DHT22;22513;51.222;6.480;2024-01-30T13:01:50;21.10;56.70
36498;DHT22;22513;51.222;6.480;2024-01-30T13:04:16;21.10;56.70
36498;DHT22;22513;51.222;6.480;2024-01-30T13:06:42;21.00;56.60
36498;DHT22;22513;51.222;6.480;2024-01-30T13:09:07;21.10;56.70
36498;DHT22;22513;51.222;6.480;2024-01-30T13:11:33;21.10;56.70
36498;DHT22;22513;51.222;6.480;2024-01-30T13:13:59;21.10;56.80
36498;DHT22;22513;51.222;6.480;2024-01-30T13:16:25;21.10;56.80
36498;DHT22;22513;51.222;6.480;2024-01-30T13:18:51;21.10;56.90
36498;DHT22;22513;51.222;6.480;2024-01-30T13:21:17;21.10;56.90
36498;DHT22;22513;51.222;6.480;2024-01-30T13:23:42;21.10;56.90
36498;DHT22;22513;51.222;6.480;2024-01-30T13:26:08;21.10;56.90
36498;DHT22;22513;51.222;6.480;2024-01-30T13:28:34;21.10;57.00
36498;DHT22;22513;51.222;6.480;2024-01-30T13:31:00;21.10;57.10
36498;DHT22;22513;51.222;6.480;2024-01-30T13:33:26;21.10;57.10
36498;DHT22;22513;51.222;6.480;2024-01-30T13:35:52;21.10;57.10
36498;DHT22;22513;51.222;6.480;2024-01-30T13:38:17;21.10;57.10
36498;DHT22;22513;51.222;6.480;2024-01-30T13:40:43;21.10;57.20
36498;DHT22;22513;51.222;6.480;2024-01-30T13:43:09;21.10;57.20
36498;DHT22;22513;51.222;6.480;2024-01-30T13:45:34;21.10;57.20
36498;DHT22;22513;51.222;6.480;2024-01-30T13:48:00;21.10;57.20
36498;DHT22;22513;51.222;6.480;2024-01-30T13:50:26;21.20;57.20
36498;DHT22;22513;51.222;6.480;2024-01-30T13:52:52;21.20;57.20
36498;DHT22;22513;51.222;6.480;2024-01-30T13:55:17;21.20;57.30
36498;DHT22;22513;51.222;6.480;2024-01-30T13:57:43;21.30;57.30
36498;DHT22;22513;51.222;6.480;2024-01-30T14:00:09;21.30;57.30
36498;DHT22;22513;51.222;6.480;2024-01-30T14:02:35;21.30;57.30
36498;DHT22;22513;51.222;6.480;2024-01-30T14:05:00;21.30;57.30
36498;DHT22;22513;51.222;6.480;2024-01-30T14:07:26;21.30;57.30
36498;DHT22;22513;51.222;6.480;2024-01-30T14:09:51;21.30;57.30
36498;DHT22;22513;51.222;6.480;2024-01-30T14:12:17;21.30;57.30
36498;DHT22;22513;51.222;6.480;2024-01-30T14:14:43;21.30;57.30
36498;DHT22;22513;51.222;6.480;2024-01-30T14:17:08;21.30;57.30
36498;DHT22;22513;51.222;6.480;2024-01-30T14:19:35;21.30;57.40
36498;DHT22;22513;51.222;6.480;2024-01-30T14:22:01;21.30;57.30
36498;DHT22;22513;51.222;6.480;2024-01-30T14:24:27;21.30;57.30
36498;DHT22;22513;51.222;6.480;2024-01-30T14:26:52;21.30;57.30
36498;DHT22;22513;51.222;6.480;2024-01-30T14:29:18;21.30;57.40
36498;DHT22;22513;51.222;6.480;2024-01-30T14:31:44;21.30;57.40
36498;DHT22;22513;51.222;6.480;2024-01-30T14:34:10;21.30;57.40
36498;DHT22;22513;51.222;6.480;2024-01-30T14:36:37;21.30;57.40
36498;DHT22;22513;51.222;6.480;2024-01-30T14:39:03;21.30;57.40
36498;DHT22;22513;51.222;6.480;2024-01-30T14:41:29;21.30;57.40
36498;DHT22;22513;51.222;6.480;2024-01-30T14:43:54;21.30;57.40
36498;DHT22;22513;51.222;6.480;2024-01-30T14:46:21;21.30;57.30
36498;DHT22;22513;51.222;6.480;2024-01-30T14:48:47;21.30;57.30
36498;DHT22;22513;51.222;6.480;2024-01-30T14:51:12;21.30;57.30
36498;DHT22;22513;51.222;6.480;2024-01-30T14:53:39;21.30;57.30
36498;DHT22;22513;51.222;6.480;2024-01-30T14:56:05;21.30;57.30
36498;DHT22;22513;51.222;6.480;2024-01-30T14:58:31;21.30;57.30
36498;DHT22;22513;51.222;6.480;2024-01-30T15:00:57;21.30;57.30
36498;DHT22;22513;51.222;6.480;2024-01-30T15:03:23;21.30;57.20
36498;DHT22;22513;51.222;6.480;2024-01-30T15:05:48;21.20;57.10
36498;DHT22;22513;51.222;6.480;2024-01-30T15:08:14;21.30;57.20
36498;DHT22;22513;51.222;6.480;2024-01-30T15:10:39;21.20;57.10
36498;DHT22;22513;51.222;6.480;2024-01-30T15:13:05;21.30;57.10
36498;DHT22;22513;51.222;6.480;2024-01-30T15:15:30;21.30;57.10
36498;DHT22;22513;51.222;6.480;2024-01-30T15:17:56;21.30;57.10
36498;DHT22;22513;51.222;6.480;2024-01-30T15:20:23;21.30;57.00
36498;DHT22;22513;51.222;6.480;2024-01-30T15:22:49;21.20;56.90
36498;DHT22;22513;51.222;6.480;2024-01-30T15:25:14;21.20;56.80
36498;DHT22;22513;51.222;6.480;2024-01-30T15:27:40;21.20;56.80
36498;DHT22;22513;51.222;6.480;2024-01-30T15:30:06;21.20;56.80
36498;DHT22;22513;51.222;6.480;2024-01-30T15:32:32;21.20;56.60